Time,TemperatureF,DewpointF,PressureIn,WindDirection,WindDirectionDegrees,WindSpeedMPH,WindSpeedGustMPH,Humidity,HourlyPrecipIn,Conditions,Clouds,dailyrainin,SolarRadiationWatts/m^2,SoftwareType,DateUTC
2013-08-15 00:01:00,56.9,54.6,29.62,WNW,299,0.0,0.0,92,0.00,,,0.00,0,WeatherCatV1.02B3,2013-08-15 07:01:00,
2013-08-15 00:06:00,57.6,55.6,29.62,WNW,299,0.0,0.0,93,0.00,,,0.00,0,WeatherCatV1.02B3,2013-08-15 07:06:00,
2013-08-15 00:11:00,56.7,54.4,29.62,WNW,299,0.0,0.0,92,0.00,,,0.00,0,WeatherCatV1.02B3,2013-08-15 07:11:00,
2013-08-15 00:16:00,57.5,55.5,29.62,SSW,211,0.0,0.0,93,0.00,,,0.00,0,WeatherCatV1.02B3,2013-08-15 07:16:00,
2013-08-15 00:21:00,57.4,55.1,29.62,West,271,1.0,1.0,92,0.00,,,0.00,0,WeatherCatV1.02B3,2013-08-15 07:21:00,
2013-08-15 00:26:00,57.9,55.9,29.62,West,277,0.0,0.0,93,0.00,,,0.00,0,WeatherCatV1.02B3,2013-08-15 07:26:00,
2013-08-15 00:31:00,58.2,56.2,29.62,West,277,0.0,0.0,93,0.00,,,0.00,0,WeatherCatV1.02B3,2013-08-15 07:31:00,
2013-08-15 00:36:00,58.4,56.4,29.62,West,263,0.0,1.0,93,0.00,,,0.00,0,WeatherCatV1.02B3,2013-08-15 07:36:00,
2013-08-15 00:41:00,58.3,56.3,29.62,West,263,0.0,0.0,93,0.00,,,0.00,0,WeatherCatV1.02B3,2013-08-15 07:41:00,
2013-08-15 00:46:00,58.2,56.2,29.62,West,263,0.0,0.0,93,0.00,,,0.00,0,WeatherCatV1.02B3,2013-08-15 07:46:00,
2013-08-15 00:51:00,58.0,56.0,29.62,West,263,0.0,1.0,93,0.00,,,0.00,0,WeatherCatV1.02B3,2013-08-15 07:51:00,
2013-08-15 00:56:00,58.3,56.3,29.62,West,273,0.0,1.0,93,0.00,,,0.00,0,WeatherCatV1.02B3,2013-08-15 07:56:00,
2013-08-15 01:01:00,58.5,56.5,29.62,West,273,0.0,0.0,93,0.00,,,0.00,0,WeatherCatV1.02B3,2013-08-15 08:01:00,
2013-08-15 01:06:00,58.6,56.6,29.62,West,273,0.0,1.0,93,0.00,,,0.00,0,WeatherCatV1.02B3,2013-08-15 08:06:00,
2013-08-15 01:11:00,58.5,56.5,29.62,West,273,0.0,0.0,93,0.00,,,0.00,0,WeatherCatV1.02B3,2013-08-15 08:11:00,
2013-08-15 01:16:00,58.5,56.5,29.62,West,273,0.0,0.0,93,0.00,,,0.00,0,WeatherCatV1.02B3,2013-08-15 08:16:00,
2013-08-15 01:21:00,58.5,56.5,29.62,West,273,0.0,0.0,93,0.00,,,0.00,0,WeatherCatV1.02B3,2013-08-15 08:21:00,
2013-08-15 01:26:00,58.6,56.6,29.62,West,273,0.0,0.0,93,0.00,,,0.00,0,WeatherCatV1.02B3,2013-08-15 08:26:00,
2013-08-15 01:31:00,58.6,56.6,29.62,West,273,0.0,0.0,93,0.00,,,0.00,0,WeatherCatV1.02B3,2013-08-15 08:31:00,
2013-08-15 01:36:00,58.6,56.6,29.62,West,273,0.0,0.0,93,0.00,,,0.00,0,WeatherCatV1.02B3,2013-08-15 08:36:00,
2013-08-15 01:41:00,58.7,56.7,29.62,West,273,1.0,1.0,93,0.00,,,0.00,0,WeatherCatV1.02B3,2013-08-15 08:41:00,
2013-08-15 01:46:00,58.8,56.8,29.62,West,273,0.0,0.0,93,0.00,,,0.00,0,WeatherCatV1.02B3,2013-08-15 08:46:00,
2013-08-15 01:51:00,58.9,56.9,29.62,West,273,0.0,0.0,93,0.00,,,0.00,0,WeatherCatV1.02B3,2013-08-15 08:51:00,
2013-08-15 01:56:00,59.0,57.0,29.62,West,273,0.0,0.0,93,0.00,,,0.00,0,WeatherCatV1.02B3,2013-08-15 08:56:00,
2013-08-15 02:01:00,58.9,56.9,29.62,West,273,0.0,0.0,93,0.00,,,0.00,0,WeatherCatV1.02B3,2013-08-15 09:01:00,
2013-08-15 02:06:00,58.7,56.7,29.62,West,273,0.0,1.0,93,0.00,,,0.00,0,WeatherCatV1.02B3,2013-08-15 09:06:00,
2013-08-15 02:11:00,58.6,56.6,29.62,West,273,0.0,0.0,93,0.00,,,0.00,0,WeatherCatV1.02B3,2013-08-15 09:11:00,
2013-08-15 02:16:00,58.6,56.6,29.62,West,273,0.0,0.0,93,0.00,,,0.00,0,WeatherCatV1.02B3,2013-08-15 09:16:00,
2013-08-15 02:21:00,58.6,56.6,29.62,West,273,0.0,0.0,93,0.00,,,0.00,0,WeatherCatV1.02B3,2013-08-15 09:21:00,
2013-08-15 02:26:00,58.5,56.5,29.62,West,273,0.0,0.0,93,0.00,,,0.00,0,WeatherCatV1.02B3,2013-08-15 09:26:00,
2013-08-15 02:31:00,58.5,56.5,29.62,West,273,0.0,0.0,93,0.00,,,0.00,0,WeatherCatV1.02B3,2013-08-15 09:31:00,
2013-08-15 02:36:00,58.5,56.5,29.62,West,273,0.0,0.0,93,0.00,,,0.00,0,WeatherCatV1.02B3,2013-08-15 09:36:00,
2013-08-15 02:41:00,58.6,56.6,29.62,West,273,0.0,0.0,93,0.00,,,0.00,0,WeatherCatV1.02B3,2013-08-15 09:41:00,
2013-08-15 02:46:00,58.6,56.6,29.62,West,273,0.0,0.0,93,0.00,,,0.00,0,WeatherCatV1.02B3,2013-08-15 09:46:00,
2013-08-15 02:51:00,58.7,56.7,29.62,West,273,0.0,0.0,93,0.00,,,0.00,0,WeatherCatV1.02B3,2013-08-15 09:51:00,
2013-08-15 02:56:00,58.6,56.6,29.62,West,273,0.0,0.0,93,0.00,,,0.00,0,WeatherCatV1.02B3,2013-08-15 09:56:00,
2013-08-15 03:01:00,58.5,56.5,29.62,West,273,0.0,0.0,93,0.00,,,0.00,0,WeatherCatV1.02B3,2013-08-15 10:01:00,
2013-08-15 03:06:00,58.4,56.4,29.62,West,273,0.0,0.0,93,0.00,,,0.00,0,WeatherCatV1.02B3,2013-08-15 10:06:00,
2013-08-15 03:11:00,58.4,56.4,29.62,West,273,0.0,0.0,93,0.00,,,0.00,0,WeatherCatV1.02B3,2013-08-15 10:11:00,
2013-08-15 03:16:00,58.4,56.4,29.62,West,273,0.0,0.0,93,0.00,,,0.00,0,WeatherCatV1.02B3,2013-08-15 10:16:00,
2013-08-15 03:21:00,58.2,56.2,29.62,West,273,0.0,0.0,93,0.00,,,0.00,0,WeatherCatV1.02B3,2013-08-15 10:21:00,
2013-08-15 03:26:00,58.0,56.3,29.62,WNW,294,0.0,0.0,94,0.00,,,0.00,0,WeatherCatV1.02B3,2013-08-15 10:26:00,
2013-08-15 03:31:00,57.8,56.1,29.62,WNW,294,0.0,0.0,94,0.00,,,0.00,0,WeatherCatV1.02B3,2013-08-15 10:31:00,
2013-08-15 03:36:00,57.8,56.1,29.62,WNW,299,0.0,0.0,94,0.00,,,0.00,0,WeatherCatV1.02B3,2013-08-15 10:36:00,
2013-08-15 03:41:00,57.8,55.8,29.62,WNW,299,0.0,1.0,93,0.00,,,0.00,0,WeatherCatV1.02B3,2013-08-15 10:41:00,
2013-08-15 03:46:00,57.7,55.7,29.62,WNW,299,0.0,0.0,93,0.00,,,0.00,0,WeatherCatV1.02B3,2013-08-15 10:46:00,
2013-08-15 03:51:00,57.7,55.7,29.62,North,355,0.0,2.0,93,0.00,,,0.00,0,WeatherCatV1.02B3,2013-08-15 10:51:00,
2013-08-15 03:56:00,57.6,55.6,29.62,North,355,0.0,0.0,93,0.00,,,0.00,0,WeatherCatV1.02B3,2013-08-15 10:56:00,
2013-08-15 04:01:00,57.5,55.5,29.62,North,355,0.0,0.0,93,0.00,,,0.00,0,WeatherCatV1.02B3,2013-08-15 11:01:00,
2013-08-15 04:06:00,57.4,55.4,29.62,North,355,0.0,0.0,93,0.00,,,0.00,0,WeatherCatV1.02B3,2013-08-15 11:06:00,
2013-08-15 04:11:00,57.4,55.4,29.62,North,5,0.0,0.0,93,0.00,,,0.00,0,WeatherCatV1.02B3,2013-08-15 11:11:00,
2013-08-15 04:16:00,57.3,55.3,29.62,North,5,0.0,0.0,93,0.00,,,0.00,0,WeatherCatV1.02B3,2013-08-15 11:16:00,
2013-08-15 04:21:00,57.1,55.1,29.62,North,5,0.0,1.0,93,0.00,,,0.00,0,WeatherCatV1.02B3,2013-08-15 11:21:00,
2013-08-15 04:26:00,56.9,54.9,29.62,NNE,33,0.0,0.0,93,0.00,,,0.00,0,WeatherCatV1.02B3,2013-08-15 11:26:00,
2013-08-15 04:31:00,56.7,54.7,29.62,NE,34,0.0,1.0,93,0.00,,,0.00,0,WeatherCatV1.02B3,2013-08-15 11:31:00,
2013-08-15 04:36:00,56.7,55.0,29.62,NE,34,0.0,0.0,94,0.00,,,0.00,0,WeatherCatV1.02B3,2013-08-15 11:36:00,
2013-08-15 04:41:00,56.8,55.1,29.62,NE,34,0.0,0.0,94,0.00,,,0.00,0,WeatherCatV1.02B3,2013-08-15 11:41:00,
2013-08-15 04:46:00,56.8,55.1,29.62,NE,34,0.0,0.0,94,0.00,,,0.00,0,WeatherCatV1.02B3,2013-08-15 11:46:00,
2013-08-15 04:51:00,56.5,54.8,29.62,NE,34,0.0,0.0,94,0.00,,,0.00,0,WeatherCatV1.02B3,2013-08-15 11:51:00,
2013-08-15 04:56:00,56.2,54.2,29.62,NE,34,0.0,0.0,93,0.00,,,0.00,0,WeatherCatV1.02B3,2013-08-15 11:56:00,
2013-08-15 04:59:00,56.1,54.4,29.62,NE,34,0.0,0.0,94,0.00,,,0.00,0,WeatherCatV1.02B3,2013-08-15 11:59:00,
2013-08-15 05:04:00,56.0,54.3,29.62,NE,34,0.0,0.0,94,0.00,,,0.00,0,WeatherCatV1.02B3,2013-08-15 12:04:00,
2013-08-15 05:09:00,55.8,53.8,29.62,NE,34,0.0,0.0,93,0.00,,,0.00,0,WeatherCatV1.02B3,2013-08-15 12:09:00,
2013-08-15 05:14:00,55.6,53.6,29.62,NE,34,0.0,0.0,93,0.00,,,0.00,0,WeatherCatV1.02B3,2013-08-15 12:14:00,
2013-08-15 05:19:00,55.6,53.9,29.62,NE,34,0.0,0.0,94,0.00,,,0.00,0,WeatherCatV1.02B3,2013-08-15 12:19:00,
2013-08-15 05:24:00,55.5,53.8,29.62,NE,34,0.0,0.0,94,0.00,,,0.00,0,WeatherCatV1.02B3,2013-08-15 12:24:00,
2013-08-15 05:29:00,55.5,53.8,29.62,NE,34,0.0,0.0,94,0.00,,,0.00,0,WeatherCatV1.02B3,2013-08-15 12:29:00,
2013-08-15 05:34:00,55.3,53.6,29.62,NE,34,0.0,0.0,94,0.00,,,0.00,0,WeatherCatV1.02B3,2013-08-15 12:34:00,
2013-08-15 05:39:00,55.2,53.2,29.62,NE,34,0.0,0.0,93,0.00,,,0.00,0,WeatherCatV1.02B3,2013-08-15 12:39:00,
2013-08-15 05:44:00,55.1,53.1,29.62,NE,34,0.0,0.0,93,0.00,,,0.00,0,WeatherCatV1.02B3,2013-08-15 12:44:00,
2013-08-15 05:49:00,54.8,53.1,29.62,NE,34,0.0,0.0,94,0.00,,,0.00,0,WeatherCatV1.02B3,2013-08-15 12:49:00,
2013-08-15 05:54:00,54.8,53.1,29.62,NE,34,0.0,0.0,94,0.00,,,0.00,0,WeatherCatV1.02B3,2013-08-15 12:54:00,
2013-08-15 05:59:00,54.7,53.0,29.62,NE,34,0.0,0.0,94,0.00,,,0.00,0,WeatherCatV1.02B3,2013-08-15 12:59:00,
2013-08-15 06:04:00,54.6,52.9,29.62,NE,34,0.0,0.0,94,0.00,,,0.00,0,WeatherCatV1.02B3,2013-08-15 13:04:00,
2013-08-15 06:09:00,54.7,53.0,29.62,NE,34,0.0,0.0,94,0.00,,,0.00,0,WeatherCatV1.02B3,2013-08-15 13:09:00,
2013-08-15 06:14:00,54.7,53.0,29.62,NE,51,0.0,1.0,94,0.00,,,0.00,0,WeatherCatV1.02B3,2013-08-15 13:14:00,
2013-08-15 06:19:00,54.6,52.9,29.62,NE,51,0.0,0.0,94,0.00,,,0.00,0,WeatherCatV1.02B3,2013-08-15 13:19:00,
2013-08-15 06:24:00,54.4,52.7,29.62,NE,51,0.0,0.0,94,0.00,,,0.00,5,WeatherCatV1.02B3,2013-08-15 13:24:00,
2013-08-15 06:29:00,54.2,52.5,29.62,NE,51,0.0,0.0,94,0.00,,,0.00,7,WeatherCatV1.02B3,2013-08-15 13:29:00,
2013-08-15 06:34:00,54.1,52.4,29.62,WSW,242,0.0,0.0,94,0.00,,,0.00,9,WeatherCatV1.02B3,2013-08-15 13:34:00,
2013-08-15 06:39:00,54.0,52.3,29.62,WSW,242,0.0,0.0,94,0.00,,,0.00,11,WeatherCatV1.02B3,2013-08-15 13:39:00,
2013-08-15 06:44:00,53.9,52.2,29.62,WSW,242,0.0,0.0,94,0.00,,,0.00,14,WeatherCatV1.02B3,2013-08-15 13:44:00,
2013-08-15 06:49:00,53.8,52.1,29.62,WSW,242,0.0,0.0,94,0.00,,,0.00,21,WeatherCatV1.02B3,2013-08-15 13:49:00,
2013-08-15 06:54:00,53.8,52.1,29.62,WSW,242,0.0,0.0,94,0.00,,,0.00,35,WeatherCatV1.02B3,2013-08-15 13:54:00,
2013-08-15 06:59:00,54.0,52.6,29.62,WSW,242,0.0,0.0,95,0.00,,,0.00,44,WeatherCatV1.02B3,2013-08-15 13:59:00,
2013-08-15 07:04:00,54.2,52.8,29.62,WSW,242,0.0,0.0,95,0.00,,,0.00,58,WeatherCatV1.02B3,2013-08-15 14:04:00,
2013-08-15 07:09:00,54.3,52.9,29.62,WSW,242,0.0,0.0,95,0.00,,,0.00,58,WeatherCatV1.02B3,2013-08-15 14:09:00,
2013-08-15 07:14:00,54.2,52.5,29.62,WSW,242,0.0,0.0,94,0.00,,,0.00,56,WeatherCatV1.02B3,2013-08-15 14:14:00,
2013-08-15 07:19:00,54.4,53.0,29.62,WSW,242,0.0,0.0,95,0.00,,,0.00,49,WeatherCatV1.02B3,2013-08-15 14:19:00,
2013-08-15 07:24:00,54.8,53.1,29.62,WSW,242,0.0,0.0,94,0.00,,,0.00,58,WeatherCatV1.02B3,2013-08-15 14:24:00,
2013-08-15 07:29:00,55.0,53.3,29.62,NNE,16,0.0,1.0,94,0.00,,,0.00,62,WeatherCatV1.02B3,2013-08-15 14:29:00,
2013-08-15 07:34:00,55.5,53.8,29.62,NNE,16,0.0,1.0,94,0.00,,,0.00,69,WeatherCatV1.02B3,2013-08-15 14:34:00,
2013-08-15 07:39:00,55.7,54.0,29.62,NNE,16,0.0,0.0,94,0.00,,,0.00,83,WeatherCatV1.02B3,2013-08-15 14:39:00,
2013-08-15 07:44:00,56.0,54.3,29.62,NNE,16,0.0,0.0,94,0.00,,,0.00,86,WeatherCatV1.02B3,2013-08-15 14:44:00,
2013-08-15 07:49:00,56.2,54.5,29.62,NNE,16,0.0,0.0,94,0.00,,,0.00,104,WeatherCatV1.02B3,2013-08-15 14:49:00,
2013-08-15 07:54:00,56.7,55.3,29.62,NNE,16,0.0,1.0,95,0.00,,,0.00,121,WeatherCatV1.02B3,2013-08-15 14:54:00,
2013-08-15 07:59:00,56.8,55.4,29.62,NNE,16,0.0,1.0,95,0.00,,,0.00,153,WeatherCatV1.02B3,2013-08-15 14:59:00,
2013-08-15 08:04:00,56.7,55.3,29.62,NNE,16,0.0,0.0,95,0.00,,,0.00,146,WeatherCatV1.02B3,2013-08-15 15:04:00,
2013-08-15 08:09:00,56.9,55.5,29.62,NNE,16,0.0,1.0,95,0.00,,,0.00,185,WeatherCatV1.02B3,2013-08-15 15:09:00,
2013-08-15 08:14:00,57.5,56.1,29.62,WSW,252,2.0,2.0,95,0.00,,,0.00,199,WeatherCatV1.02B3,2013-08-15 15:14:00,
2013-08-15 08:19:00,58.4,57.0,29.62,WNW,282,0.0,4.0,95,0.00,,,0.00,178,WeatherCatV1.02B3,2013-08-15 15:19:00,
2013-08-15 08:24:00,58.4,56.7,29.62,WSW,254,0.0,2.0,94,0.00,,,0.00,253,WeatherCatV1.02B3,2013-08-15 15:24:00,
2013-08-15 08:29:00,58.6,56.9,29.62,WNW,285,2.0,3.0,94,0.00,,,0.00,350,WeatherCatV1.02B3,2013-08-15 15:29:00,
2013-08-15 08:34:00,59.4,57.7,29.62,WSW,247,0.0,1.0,94,0.00,,,0.00,369,WeatherCatV1.02B3,2013-08-15 15:34:00,
2013-08-15 08:39:00,60.2,57.9,29.62,SE,139,0.0,2.0,92,0.00,,,0.00,388,WeatherCatV1.02B3,2013-08-15 15:39:00,
2013-08-15 08:44:00,61.3,58.3,29.62,ESE,109,0.0,1.0,90,0.00,,,0.00,406,WeatherCatV1.02B3,2013-08-15 15:44:00,
2013-08-15 08:49:00,62.3,58.7,29.62,West,263,1.0,2.0,88,0.00,,,0.00,422,WeatherCatV1.02B3,2013-08-15 15:49:00,
2013-08-15 08:54:00,63.3,59.0,29.62,East,94,1.0,3.0,86,0.00,,,0.00,438,WeatherCatV1.02B3,2013-08-15 15:54:00,
2013-08-15 08:59:00,64.4,59.1,29.62,West,261,0.0,3.0,83,0.00,,,0.00,452,WeatherCatV1.02B3,2013-08-15 15:59:00,
2013-08-15 09:04:00,64.7,58.7,29.62,East,82,2.0,3.0,81,0.00,,,0.00,469,WeatherCatV1.02B3,2013-08-15 16:04:00,
2013-08-15 09:09:00,65.0,59.4,29.62,SW,223,1.0,3.0,82,0.00,,,0.00,485,WeatherCatV1.02B3,2013-08-15 16:09:00,
2013-08-15 09:14:00,65.2,59.2,29.62,NE,52,0.0,2.0,81,0.00,,,0.00,503,WeatherCatV1.02B3,2013-08-15 16:14:00,
2013-08-15 09:19:00,66.3,59.9,29.62,West,262,2.0,3.0,80,0.00,,,0.00,517,WeatherCatV1.02B3,2013-08-15 16:19:00,
2013-08-15 09:24:00,67.2,60.1,29.62,SE,146,2.0,4.0,78,0.00,,,0.00,531,WeatherCatV1.02B3,2013-08-15 16:24:00,
2013-08-15 09:29:00,68.0,60.5,29.62,ESE,122,0.0,1.0,77,0.00,,,0.00,547,WeatherCatV1.02B3,2013-08-15 16:29:00,
2013-08-15 09:34:00,68.9,60.6,29.62,SW,228,0.0,2.0,75,0.00,,,0.00,559,WeatherCatV1.02B3,2013-08-15 16:34:00,
2013-08-15 09:39:00,69.6,60.5,29.62,WSW,241,0.0,2.0,73,0.00,,,0.00,577,WeatherCatV1.02B3,2013-08-15 16:39:00,
2013-08-15 09:44:00,70.8,61.3,29.62,NE,43,0.0,1.0,72,0.00,,,0.00,594,WeatherCatV1.02B3,2013-08-15 16:44:00,
2013-08-15 09:49:00,71.0,61.1,29.62,WNW,286,0.0,3.0,71,0.00,,,0.00,605,WeatherCatV1.02B3,2013-08-15 16:49:00,
2013-08-15 09:54:00,71.4,61.1,29.62,South,169,0.0,3.0,70,0.00,,,0.00,621,WeatherCatV1.02B3,2013-08-15 16:54:00,
2013-08-15 09:59:00,72.2,61.9,29.62,West,267,2.0,2.0,70,0.00,,,0.00,635,WeatherCatV1.02B3,2013-08-15 16:59:00,
2013-08-15 10:04:00,73.1,62.3,29.62,WSW,241,3.0,5.0,69,0.00,,,0.00,645,WeatherCatV1.02B3,2013-08-15 17:04:00,
2013-08-15 10:09:00,74.2,61.7,29.62,WNW,290,3.0,5.0,65,0.00,,,0.00,656,WeatherCatV1.02B3,2013-08-15 17:09:00,
2013-08-15 10:14:00,74.0,61.9,29.62,WSW,248,4.0,5.0,66,0.00,,,0.00,668,WeatherCatV1.02B3,2013-08-15 17:14:00,
2013-08-15 10:19:00,75.0,62.0,29.62,WNW,292,1.0,3.0,64,0.00,,,0.00,680,WeatherCatV1.02B3,2013-08-15 17:19:00,
2013-08-15 10:24:00,76.2,62.2,29.62,SSW,205,1.0,5.0,62,0.00,,,0.00,696,WeatherCatV1.02B3,2013-08-15 17:24:00,
2013-08-15 10:29:00,76.8,62.3,29.62,West,279,1.0,4.0,61,0.00,,,0.00,707,WeatherCatV1.02B3,2013-08-15 17:29:00,
2013-08-15 10:34:00,76.6,62.1,29.62,South,184,3.0,3.0,61,0.00,,,0.00,719,WeatherCatV1.02B3,2013-08-15 17:34:00,
2013-08-15 10:39:00,78.1,62.1,29.62,West,276,2.0,4.0,58,0.00,,,0.00,731,WeatherCatV1.02B3,2013-08-15 17:39:00,
2013-08-15 10:44:00,79.5,62.9,29.62,ENE,78,2.0,3.0,57,0.00,,,0.00,742,WeatherCatV1.02B3,2013-08-15 17:44:00,
2013-08-15 10:49:00,79.4,61.8,29.62,West,279,5.0,6.0,55,0.00,,,0.00,754,WeatherCatV1.02B3,2013-08-15 17:49:00,
2013-08-15 10:54:00,79.4,61.8,29.62,WSW,242,0.0,2.0,55,0.00,,,0.00,761,WeatherCatV1.02B3,2013-08-15 17:54:00,
2013-08-15 11:00:00,80.4,61.7,29.62,North,355,2.0,3.0,53,0.00,,,0.00,773,WeatherCatV1.02B3,2013-08-15 18:00:00,
2013-08-15 11:05:00,81.1,62.9,29.62,West,275,4.0,6.0,54,0.00,,,0.00,782,WeatherCatV1.02B3,2013-08-15 18:05:00,
2013-08-15 11:10:00,81.8,63.0,29.62,NW,306,1.0,4.0,53,0.00,,,0.00,791,WeatherCatV1.02B3,2013-08-15 18:10:00,
2013-08-15 11:15:00,81.7,62.3,29.62,West,273,1.0,7.0,52,0.00,,,0.00,802,WeatherCatV1.02B3,2013-08-15 18:15:00,
2013-08-15 11:20:00,81.5,62.7,29.62,ESE,107,2.0,5.0,53,0.00,,,0.00,807,WeatherCatV1.02B3,2013-08-15 18:20:00,
2013-08-15 11:25:00,81.9,63.1,29.62,West,262,0.0,6.0,53,0.00,,,0.00,816,WeatherCatV1.02B3,2013-08-15 18:25:00,
2013-08-15 11:30:00,82.5,63.6,29.62,WNW,296,2.0,5.0,53,0.00,,,0.00,823,WeatherCatV1.02B3,2013-08-15 18:30:00,
2013-08-15 11:35:00,82.4,63.5,29.62,NW,308,4.0,7.0,53,0.00,,,0.00,830,WeatherCatV1.02B3,2013-08-15 18:35:00,
2013-08-15 11:40:00,82.6,63.7,29.62,NNW,336,6.0,6.0,53,0.00,,,0.00,840,WeatherCatV1.02B3,2013-08-15 18:40:00,
2013-08-15 11:45:00,83.6,63.5,29.62,West,279,3.0,6.0,51,0.00,,,0.00,849,WeatherCatV1.02B3,2013-08-15 18:45:00,
2013-08-15 11:50:00,83.7,63.6,29.62,West,280,7.0,8.0,51,0.00,,,0.00,828,WeatherCatV1.02B3,2013-08-15 18:50:00,
2013-08-15 11:55:00,82.8,62.8,29.62,West,277,8.0,9.0,51,0.00,,,0.00,863,WeatherCatV1.02B3,2013-08-15 18:55:00,
2013-08-15 12:00:00,83.3,63.3,29.62,West,281,6.0,8.0,51,0.00,,,0.00,854,WeatherCatV1.02B3,2013-08-15 19:00:00,
2013-08-15 12:05:00,83.1,63.6,29.62,West,263,4.0,9.0,52,0.00,,,0.00,870,WeatherCatV1.02B3,2013-08-15 19:05:00,
2013-08-15 12:10:00,83.5,62.9,29.62,West,280,6.0,8.0,50,0.00,,,0.00,875,WeatherCatV1.02B3,2013-08-15 19:10:00,
2013-08-15 12:15:00,84.0,63.3,29.62,West,265,5.0,6.0,50,0.00,,,0.00,895,WeatherCatV1.02B3,2013-08-15 19:15:00,
2013-08-15 12:20:00,84.8,63.5,29.62,West,259,4.0,5.0,49,0.00,,,0.00,884,WeatherCatV1.02B3,2013-08-15 19:20:00,
2013-08-15 12:25:00,85.6,63.6,29.62,West,266,4.0,7.0,48,0.00,,,0.00,888,WeatherCatV1.02B3,2013-08-15 19:25:00,
2013-08-15 12:30:00,85.5,63.5,29.62,WNW,284,5.0,7.0,48,0.00,,,0.00,881,WeatherCatV1.02B3,2013-08-15 19:30:00,
2013-08-15 12:35:00,85.7,63.7,29.62,WNW,296,5.0,8.0,48,0.00,,,0.00,898,WeatherCatV1.02B3,2013-08-15 19:35:00,
2013-08-15 12:40:00,84.7,63.4,29.62,West,275,5.0,9.0,49,0.00,,,0.00,895,WeatherCatV1.02B3,2013-08-15 19:40:00,
2013-08-15 12:45:00,84.7,63.4,29.62,WNW,286,4.0,8.0,49,0.00,,,0.00,896,WeatherCatV1.02B3,2013-08-15 19:45:00,
2013-08-15 12:50:00,85.6,63.6,29.62,West,279,4.0,6.0,48,0.00,,,0.00,898,WeatherCatV1.02B3,2013-08-15 19:50:00,
2013-08-15 12:55:00,85.2,63.3,29.62,West,271,4.0,8.0,48,0.00,,,0.00,819,WeatherCatV1.02B3,2013-08-15 19:55:00,
2013-08-15 13:00:00,84.5,63.2,29.62,WSW,240,4.0,7.0,49,0.00,,,0.00,907,WeatherCatV1.02B3,2013-08-15 20:00:00,
2013-08-15 13:05:00,84.5,63.2,29.62,West,261,5.0,7.0,49,0.00,,,0.00,902,WeatherCatV1.02B3,2013-08-15 20:05:00,
2013-08-15 13:10:00,85.1,63.2,29.62,West,276,6.0,7.0,48,0.00,,,0.00,900,WeatherCatV1.02B3,2013-08-15 20:10:00,
2013-08-15 13:15:00,85.6,63.6,29.62,West,275,6.0,7.0,48,0.00,,,0.00,900,WeatherCatV1.02B3,2013-08-15 20:15:00,
2013-08-15 13:20:00,85.1,62.6,29.62,WNW,295,5.0,7.0,47,0.00,,,0.00,896,WeatherCatV1.02B3,2013-08-15 20:20:00,
2013-08-15 13:25:00,84.9,63.0,29.62,West,269,4.0,9.0,48,0.00,,,0.00,891,WeatherCatV1.02B3,2013-08-15 20:25:00,
2013-08-15 13:30:00,85.0,62.5,29.62,West,265,6.0,8.0,47,0.00,,,0.00,895,WeatherCatV1.02B3,2013-08-15 20:30:00,
2013-08-15 13:35:00,85.6,62.4,29.62,WNW,302,5.0,11.0,46,0.00,,,0.00,888,WeatherCatV1.02B3,2013-08-15 20:35:00,
2013-08-15 13:40:00,85.8,62.0,29.62,WNW,286,5.0,10.0,45,0.00,,,0.00,886,WeatherCatV1.02B3,2013-08-15 20:40:00,
2013-08-15 13:45:00,86.0,62.1,29.62,West,264,10.0,13.0,45,0.00,,,0.00,882,WeatherCatV1.02B3,2013-08-15 20:45:00,
2013-08-15 13:50:00,86.8,62.2,29.62,WSW,249,6.0,7.0,44,0.00,,,0.00,877,WeatherCatV1.02B3,2013-08-15 20:50:00,
2013-08-15 13:55:00,87.4,62.1,29.62,West,261,5.0,6.0,43,0.00,,,0.00,875,WeatherCatV1.02B3,2013-08-15 20:55:00,
2013-08-15 14:00:00,88.6,61.8,29.62,NW,309,4.0,7.0,41,0.00,,,0.00,872,WeatherCatV1.02B3,2013-08-15 21:00:00,
2013-08-15 14:05:00,88.8,62.0,29.62,West,279,5.0,8.0,41,0.00,,,0.00,867,WeatherCatV1.02B3,2013-08-15 21:05:00,
2013-08-15 14:10:00,89.0,62.2,29.62,WNW,296,6.0,7.0,41,0.00,,,0.00,863,WeatherCatV1.02B3,2013-08-15 21:10:00,
2013-08-15 14:15:00,89.5,62.6,29.62,WNW,282,5.0,5.0,41,0.00,,,0.00,856,WeatherCatV1.02B3,2013-08-15 21:15:00,
2013-08-15 14:20:00,89.9,61.6,29.62,WNW,301,6.0,8.0,39,0.00,,,0.00,854,WeatherCatV1.02B3,2013-08-15 21:20:00,
2013-08-15 14:25:00,90.2,61.1,29.62,WNW,302,4.0,7.0,38,0.00,,,0.00,842,WeatherCatV1.02B3,2013-08-15 21:25:00,
2013-08-15 14:30:00,90.8,60.9,29.62,WSW,237,5.0,7.0,37,0.00,,,0.00,835,WeatherCatV1.02B3,2013-08-15 21:30:00,
2013-08-15 14:35:00,91.3,61.3,29.62,West,261,5.0,8.0,37,0.00,,,0.00,830,WeatherCatV1.02B3,2013-08-15 21:35:00,
2013-08-15 14:40:00,91.2,61.2,29.62,WNW,298,7.0,9.0,37,0.00,,,0.00,824,WeatherCatV1.02B3,2013-08-15 21:40:00,
2013-08-15 14:45:00,91.7,61.7,29.62,SW,233,1.0,9.0,37,0.00,,,0.00,810,WeatherCatV1.02B3,2013-08-15 21:45:00,
2013-08-15 14:50:00,91.8,60.2,29.62,WSW,243,1.0,5.0,35,0.00,,,0.00,803,WeatherCatV1.02B3,2013-08-15 21:50:00,
2013-08-15 14:55:00,91.2,59.7,29.62,ENE,71,0.0,4.0,35,0.00,,,0.00,793,WeatherCatV1.02B3,2013-08-15 21:55:00,
2013-08-15 15:00:00,90.5,59.9,29.62,ENE,76,0.0,3.0,36,0.00,,,0.00,784,WeatherCatV1.02B3,2013-08-15 22:00:00,
2013-08-15 15:05:00,90.2,60.4,29.62,ENE,59,3.0,3.0,37,0.00,,,0.00,777,WeatherCatV1.02B3,2013-08-15 22:05:00,
2013-08-15 15:10:00,90.5,59.9,29.62,ENE,76,0.0,3.0,36,0.00,,,0.00,766,WeatherCatV1.02B3,2013-08-15 22:10:00,
2013-08-15 15:15:00,90.0,60.2,29.62,WNW,300,1.0,7.0,37,0.00,,,0.00,758,WeatherCatV1.02B3,2013-08-15 22:15:00,
2013-08-15 15:20:00,89.5,60.5,29.62,NW,315,3.0,4.0,38,0.00,,,0.00,745,WeatherCatV1.02B3,2013-08-15 22:20:00,
2013-08-15 15:25:00,88.5,59.6,29.62,NNW,338,0.0,4.0,38,0.00,,,0.00,733,WeatherCatV1.02B3,2013-08-15 22:25:00,
2013-08-15 15:30:00,88.7,59.8,29.62,NE,44,2.0,3.0,38,0.00,,,0.00,719,WeatherCatV1.02B3,2013-08-15 22:30:00,
2013-08-15 15:35:00,88.6,59.7,29.62,NW,317,2.0,5.0,38,0.00,,,0.00,708,WeatherCatV1.02B3,2013-08-15 22:35:00,
2013-08-15 15:40:00,88.3,60.2,29.62,NNE,13,3.0,3.0,39,0.00,,,0.00,694,WeatherCatV1.02B3,2013-08-15 22:40:00,
2013-08-15 15:45:00,87.9,59.1,29.62,NNE,32,1.0,6.0,38,0.00,,,0.00,687,WeatherCatV1.02B3,2013-08-15 22:45:00,
2013-08-15 15:50:00,87.6,58.8,29.62,West,262,1.0,6.0,38,0.00,,,0.00,673,WeatherCatV1.02B3,2013-08-15 22:50:00,
2013-08-15 15:55:00,87.7,58.9,29.62,WNW,286,3.0,8.0,38,0.00,,,0.00,663,WeatherCatV1.02B3,2013-08-15 22:55:00,
2013-08-15 16:00:00,88.4,58.8,29.62,West,275,4.0,7.0,37,0.00,,,0.00,650,WeatherCatV1.02B3,2013-08-15 23:00:00,
2013-08-15 16:05:00,87.6,58.8,29.62,WSW,245,5.0,11.0,38,0.00,,,0.00,635,WeatherCatV1.02B3,2013-08-15 23:05:00,
2013-08-15 16:10:00,87.6,59.5,29.62,WSW,257,5.0,7.0,39,0.00,,,0.00,621,WeatherCatV1.02B3,2013-08-15 23:10:00,
2013-08-15 16:15:00,87.7,58.2,29.62,West,268,5.0,11.0,37,0.00,,,0.00,605,WeatherCatV1.02B3,2013-08-15 23:15:00,
2013-08-15 16:20:00,87.6,58.8,29.62,NNW,343,6.0,9.0,38,0.00,,,0.00,594,WeatherCatV1.02B3,2013-08-15 23:20:00,
2013-08-15 16:25:00,87.5,58.7,29.62,West,273,6.0,7.0,38,0.00,,,0.00,580,WeatherCatV1.02B3,2013-08-15 23:25:00,
2013-08-15 16:30:00,87.3,59.3,29.62,WNW,302,5.0,9.0,39,0.00,,,0.00,566,WeatherCatV1.02B3,2013-08-15 23:30:00,
2013-08-15 16:35:00,87.4,59.4,29.62,West,281,5.0,8.0,39,0.00,,,0.00,550,WeatherCatV1.02B3,2013-08-15 23:35:00,
2013-08-15 16:40:00,87.9,59.1,29.62,WSW,249,3.0,8.0,38,0.00,,,0.00,540,WeatherCatV1.02B3,2013-08-15 23:40:00,
2013-08-15 16:45:00,87.9,59.1,29.62,WSW,254,5.0,7.0,38,0.00,,,0.00,519,WeatherCatV1.02B3,2013-08-15 23:45:00,
2013-08-15 16:50:00,87.7,58.9,29.62,West,279,4.0,5.0,38,0.00,,,0.00,504,WeatherCatV1.02B3,2013-08-15 23:50:00,
2013-08-15 16:55:00,87.9,59.1,29.62,West,265,4.0,8.0,38,0.00,,,0.00,487,WeatherCatV1.02B3,2013-08-15 23:55:00,
2013-08-15 17:00:00,88.0,58.4,29.62,West,276,8.0,8.0,37,0.00,,,0.00,471,WeatherCatV1.02B3,2013-08-16 00:00:00,
2013-08-15 17:05:00,86.8,58.1,29.62,West,261,7.0,7.0,38,0.00,,,0.00,459,WeatherCatV1.02B3,2013-08-16 00:05:00,
2013-08-15 17:10:00,87.0,58.3,29.62,North,355,1.0,7.0,38,0.00,,,0.00,443,WeatherCatV1.02B3,2013-08-16 00:10:00,
2013-08-15 17:15:00,87.4,57.9,29.62,WNW,292,3.0,9.0,37,0.00,,,0.00,431,WeatherCatV1.02B3,2013-08-16 00:15:00,
2013-08-15 17:20:00,87.6,58.1,29.62,West,265,4.0,8.0,37,0.00,,,0.00,410,WeatherCatV1.02B3,2013-08-16 00:20:00,
2013-08-15 17:25:00,87.4,57.9,29.62,West,274,3.0,8.0,37,0.00,,,0.00,394,WeatherCatV1.02B3,2013-08-16 00:25:00,
2013-08-15 17:30:00,87.4,57.9,29.62,West,269,3.0,7.0,37,0.00,,,0.00,378,WeatherCatV1.02B3,2013-08-16 00:30:00,
2013-08-15 17:35:00,87.3,58.5,29.62,WSW,240,2.0,7.0,38,0.00,,,0.00,359,WeatherCatV1.02B3,2013-08-16 00:35:00,
2013-08-15 17:40:00,86.9,58.9,29.62,WSW,248,2.0,5.0,39,0.00,,,0.00,345,WeatherCatV1.02B3,2013-08-16 00:40:00,
2013-08-15 17:45:00,86.9,58.9,29.62,West,277,3.0,6.0,39,0.00,,,0.00,329,WeatherCatV1.02B3,2013-08-16 00:45:00,
2013-08-15 17:50:00,86.3,59.1,29.62,West,271,5.0,7.0,40,0.00,,,0.00,311,WeatherCatV1.02B3,2013-08-16 00:50:00,
2013-08-15 17:56:00,86.2,59.0,29.62,WSW,258,4.0,5.0,40,0.00,,,0.00,294,WeatherCatV1.02B3,2013-08-16 00:56:00,
2013-08-15 18:01:00,86.2,59.7,29.62,West,264,4.0,5.0,41,0.00,,,0.00,278,WeatherCatV1.02B3,2013-08-16 01:01:00,
2013-08-15 18:06:00,85.6,59.2,29.62,West,267,6.0,6.0,41,0.00,,,0.00,262,WeatherCatV1.02B3,2013-08-16 01:06:00,
2013-08-15 18:11:00,84.8,59.1,29.62,WSW,250,5.0,7.0,42,0.00,,,0.00,246,WeatherCatV1.02B3,2013-08-16 01:11:00,
2013-08-15 18:16:00,83.6,60.0,29.62,West,268,5.0,7.0,45,0.00,,,0.00,229,WeatherCatV1.02B3,2013-08-16 01:16:00,
2013-08-15 18:21:00,82.7,59.8,29.62,WNW,291,3.0,6.0,46,0.00,,,0.00,211,WeatherCatV1.02B3,2013-08-16 01:21:00,
2013-08-15 18:26:00,82.1,59.8,29.62,West,260,2.0,7.0,47,0.00,,,0.00,192,WeatherCatV1.02B3,2013-08-16 01:26:00,
2013-08-15 18:31:00,81.5,59.9,29.62,West,274,4.0,6.0,48,0.00,,,0.00,171,WeatherCatV1.02B3,2013-08-16 01:31:00,
2013-08-15 18:36:00,80.5,59.6,29.62,West,265,0.0,5.0,49,0.00,,,0.00,151,WeatherCatV1.02B3,2013-08-16 01:36:00,
2013-08-15 18:41:00,79.8,60.0,29.62,WSW,248,0.0,1.0,51,0.00,,,0.00,130,WeatherCatV1.02B3,2013-08-16 01:41:00,
2013-08-15 18:46:00,79.5,60.3,29.62,West,267,0.0,2.0,52,0.00,,,0.00,109,WeatherCatV1.02B3,2013-08-16 01:46:00,
2013-08-15 18:51:00,78.6,60.5,29.62,ESE,113,0.0,1.0,54,0.00,,,0.00,33,WeatherCatV1.02B3,2013-08-16 01:51:00,
2013-08-15 18:56:00,77.3,59.9,29.62,South,176,0.0,0.0,55,0.00,,,0.00,25,WeatherCatV1.02B3,2013-08-16 01:56:00,
2013-08-15 19:01:00,76.2,59.8,29.62,SE,142,1.0,2.0,57,0.00,,,0.00,21,WeatherCatV1.02B3,2013-08-16 02:01:00,
2013-08-15 19:06:00,75.4,60.1,29.62,East,94,0.0,1.0,59,0.00,,,0.00,19,WeatherCatV1.02B3,2013-08-16 02:06:00,
2013-08-15 19:11:00,74.9,60.1,29.62,East,84,0.0,1.0,60,0.00,,,0.00,18,WeatherCatV1.02B3,2013-08-16 02:11:00,
2013-08-15 19:16:00,74.2,59.9,29.62,East,84,0.0,1.0,61,0.00,,,0.00,16,WeatherCatV1.02B3,2013-08-16 02:16:00,
2013-08-15 19:21:00,73.6,59.8,29.62,SE,126,0.0,2.0,62,0.00,,,0.00,14,WeatherCatV1.02B3,2013-08-16 02:21:00,
2013-08-15 19:26:00,72.8,59.9,29.62,SE,126,0.0,1.0,64,0.00,,,0.00,12,WeatherCatV1.02B3,2013-08-16 02:26:00,
2013-08-15 19:31:00,72.2,59.8,29.62,SE,125,0.0,0.0,65,0.00,,,0.00,11,WeatherCatV1.02B3,2013-08-16 02:31:00,
2013-08-15 19:36:00,71.8,59.4,29.62,SE,125,0.0,0.0,65,0.00,,,0.00,7,WeatherCatV1.02B3,2013-08-16 02:36:00,
2013-08-15 19:41:00,71.3,59.3,29.62,SE,125,0.0,1.0,66,0.00,,,0.00,5,WeatherCatV1.02B3,2013-08-16 02:41:00,
2013-08-15 19:46:00,70.7,59.6,29.62,SE,126,0.0,0.0,68,0.00,,,0.00,0,WeatherCatV1.02B3,2013-08-16 02:46:00,
2013-08-15 19:51:00,69.8,59.6,29.62,SE,126,0.0,0.0,70,0.00,,,0.00,0,WeatherCatV1.02B3,2013-08-16 02:51:00,
2013-08-15 19:56:00,69.4,59.2,29.62,SE,126,0.0,0.0,70,0.00,,,0.00,0,WeatherCatV1.02B3,2013-08-16 02:56:00,
2013-08-15 20:01:00,69.2,59.4,29.62,SE,126,0.0,0.0,71,0.00,,,0.00,0,WeatherCatV1.02B3,2013-08-16 03:01:00,
2013-08-15 20:06:00,68.6,59.2,29.62,SE,126,0.0,0.0,72,0.00,,,0.00,0,WeatherCatV1.02B3,2013-08-16 03:06:00,
2013-08-15 20:11:00,68.0,59.4,29.62,SE,126,0.0,0.0,74,0.00,,,0.00,0,WeatherCatV1.02B3,2013-08-16 03:11:00,
2013-08-15 20:16:00,67.5,59.3,29.62,SE,126,0.0,0.0,75,0.00,,,0.00,0,WeatherCatV1.02B3,2013-08-16 03:16:00,
2013-08-15 20:21:00,67.0,59.2,29.62,SE,126,0.0,0.0,76,0.00,,,0.00,0,WeatherCatV1.02B3,2013-08-16 03:21:00,
2013-08-15 20:26:00,66.7,58.9,29.62,SE,126,0.0,0.0,76,0.00,,,0.00,0,WeatherCatV1.02B3,2013-08-16 03:26:00,
2013-08-15 20:31:00,66.3,58.9,29.62,SE,126,0.0,0.0,77,0.00,,,0.00,0,WeatherCatV1.02B3,2013-08-16 03:31:00,
2013-08-15 20:36:00,66.2,59.1,29.62,SE,126,0.0,0.0,78,0.00,,,0.00,0,WeatherCatV1.02B3,2013-08-16 03:36:00,
2013-08-15 20:41:00,65.7,58.6,29.62,SE,126,0.0,0.0,78,0.00,,,0.00,0,WeatherCatV1.02B3,2013-08-16 03:41:00,
2013-08-15 20:46:00,65.3,58.3,29.62,SE,126,0.0,0.0,78,0.00,,,0.00,0,WeatherCatV1.02B3,2013-08-16 03:46:00,
2013-08-15 20:51:00,65.4,59.1,29.62,SE,126,0.0,0.0,80,0.00,,,0.00,0,WeatherCatV1.02B3,2013-08-16 03:51:00,
2013-08-15 20:56:00,65.1,58.4,29.62,SE,126,0.0,0.0,79,0.00,,,0.00,0,WeatherCatV1.02B3,2013-08-16 03:56:00,
2013-08-15 21:01:00,64.8,58.5,29.62,SE,126,0.0,0.0,80,0.00,,,0.00,0,WeatherCatV1.02B3,2013-08-16 04:01:00,
2013-08-15 21:06:00,64.5,58.2,29.62,SE,126,0.0,0.0,80,0.00,,,0.00,0,WeatherCatV1.02B3,2013-08-16 04:06:00,
2013-08-15 21:11:00,64.3,58.3,29.62,SE,126,0.0,0.0,81,0.00,,,0.00,0,WeatherCatV1.02B3,2013-08-16 04:11:00,
2013-08-15 21:16:00,63.8,58.2,29.62,SE,126,0.0,0.0,82,0.00,,,0.00,0,WeatherCatV1.02B3,2013-08-16 04:16:00,
2013-08-15 21:21:00,63.8,58.2,29.62,SE,126,0.0,0.0,82,0.00,,,0.00,0,WeatherCatV1.02B3,2013-08-16 04:21:00,
2013-08-15 21:26:00,63.4,58.1,29.62,SE,126,0.0,0.0,83,0.00,,,0.00,0,WeatherCatV1.02B3,2013-08-16 04:26:00,
2013-08-15 21:31:00,63.2,58.3,29.62,SE,126,0.0,1.0,84,0.00,,,0.00,0,WeatherCatV1.02B3,2013-08-16 04:31:00,
2013-08-15 21:36:00,63.1,57.8,29.62,SE,126,0.0,0.0,83,0.00,,,0.00,0,WeatherCatV1.02B3,2013-08-16 04:36:00,
2013-08-15 21:41:00,62.9,58.3,29.62,SE,126,1.0,1.0,85,0.00,,,0.00,0,WeatherCatV1.02B3,2013-08-16 04:41:00,
2013-08-15 21:46:00,62.7,58.4,29.62,SE,126,0.0,1.0,86,0.00,,,0.00,0,WeatherCatV1.02B3,2013-08-16 04:46:00,
2013-08-15 21:51:00,62.5,58.2,29.62,SE,129,0.0,0.0,86,0.00,,,0.00,0,WeatherCatV1.02B3,2013-08-16 04:51:00,
2013-08-15 21:56:00,62.5,58.2,29.62,SE,129,0.0,0.0,86,0.00,,,0.00,0,WeatherCatV1.02B3,2013-08-16 04:56:00,
2013-08-15 22:01:00,62.2,58.0,29.62,SSE,152,0.0,0.0,86,0.00,,,0.00,0,WeatherCatV1.02B3,2013-08-16 05:01:00,
2013-08-15 22:06:00,61.9,58.0,29.62,SSE,163,0.0,1.0,87,0.00,,,0.00,0,WeatherCatV1.02B3,2013-08-16 05:06:00,
2013-08-15 22:11:00,61.8,57.9,29.62,SSE,163,0.0,0.0,87,0.00,,,0.00,0,WeatherCatV1.02B3,2013-08-16 05:11:00,
2013-08-15 22:16:00,61.5,57.9,29.62,SSE,163,0.0,0.0,88,0.00,,,0.00,0,WeatherCatV1.02B3,2013-08-16 05:16:00,
2013-08-15 22:19:00,61.3,57.7,29.62,SSE,163,0.0,0.0,88,0.00,,,0.00,0,WeatherCatV1.02B3,2013-08-16 05:19:00,
2013-08-15 22:25:00,61.1,57.5,29.62,SSE,166,0.0,1.0,88,0.00,,,0.00,0,WeatherCatV1.02B3,2013-08-16 05:25:00,
2013-08-15 22:30:00,61.0,57.7,29.62,SSE,166,0.0,0.0,89,0.00,,,0.00,0,WeatherCatV1.02B3,2013-08-16 05:30:00,
2013-08-15 22:35:00,60.8,57.5,29.62,SSE,166,0.0,0.0,89,0.00,,,0.00,0,WeatherCatV1.02B3,2013-08-16 05:35:00,
2013-08-15 22:40:00,60.7,57.7,29.62,SSE,166,0.0,0.0,90,0.00,,,0.00,0,WeatherCatV1.02B3,2013-08-16 05:40:00,
2013-08-15 22:45:00,60.7,57.7,29.62,SSE,166,0.0,0.0,90,0.00,,,0.00,0,WeatherCatV1.02B3,2013-08-16 05:45:00,
2013-08-15 22:50:00,60.6,57.3,29.62,SSE,166,0.0,0.0,89,0.00,,,0.00,0,WeatherCatV1.02B3,2013-08-16 05:50:00,
2013-08-15 22:55:00,60.3,57.0,29.62,SSE,166,0.0,0.0,89,0.00,,,0.00,0,WeatherCatV1.02B3,2013-08-16 05:55:00,
2013-08-15 23:00:00,60.1,56.8,29.62,SSE,166,0.0,0.0,89,0.00,,,0.00,0,WeatherCatV1.02B3,2013-08-16 06:00:00,
2013-08-15 23:05:00,60.1,56.8,29.62,SSE,166,0.0,0.0,89,0.00,,,0.00,0,WeatherCatV1.02B3,2013-08-16 06:05:00,
2013-08-15 23:10:00,60.0,56.7,29.62,SSE,166,0.0,0.0,89,0.00,,,0.00,0,WeatherCatV1.02B3,2013-08-16 06:10:00,
2013-08-15 23:15:00,59.5,56.3,29.62,SSE,166,0.0,0.0,89,0.00,,,0.00,0,WeatherCatV1.02B3,2013-08-16 06:15:00,
2013-08-15 23:20:00,59.5,56.3,29.62,SSE,166,0.0,0.0,89,0.00,,,0.00,0,WeatherCatV1.02B3,2013-08-16 06:20:00,
2013-08-15 23:25:00,59.5,56.3,29.62,SSE,166,0.0,0.0,89,0.00,,,0.00,0,WeatherCatV1.02B3,2013-08-16 06:25:00,
2013-08-15 23:30:00,59.6,56.7,29.62,SSE,166,0.0,0.0,90,0.00,,,0.00,0,WeatherCatV1.02B3,2013-08-16 06:30:00,
2013-08-15 23:35:00,59.5,56.3,29.62,SSE,166,0.0,0.0,89,0.00,,,0.00,0,WeatherCatV1.02B3,2013-08-16 06:35:00,
2013-08-15 23:40:00,59.3,56.4,29.62,SSE,166,0.0,0.0,90,0.00,,,0.00,0,WeatherCatV1.02B3,2013-08-16 06:40:00,
2013-08-15 23:45:00,59.5,56.6,29.62,SSE,166,0.0,0.0,90,0.00,,,0.00,0,WeatherCatV1.02B3,2013-08-16 06:45:00,
2013-08-15 23:50:00,59.4,56.5,29.62,SSE,166,0.0,0.0,90,0.00,,,0.00,0,WeatherCatV1.02B3,2013-08-16 06:50:00,
2013-08-15 23:55:00,59.3,56.7,29.62,SSE,166,0.0,0.0,91,0.00,,,0.00,0,WeatherCatV1.02B3,2013-08-16 06:55:00,